Hovedside
METAR-TAF:

METAR-TAF

Lufthavner :

Åbo lufthavn

Åbo, Finland

breddegrad: 60-31N, lengdegrad: 022-16E, høyde over havet: 49 m

Gjeldene værobservasjon

Denne rapporten ble laget for 8 minutter siden, klokken 17:20 UTC
Vind 8 kt fra Vest
Temperatur 21°C
Luftfuktighet 43%
Trykk 1027 hPa
Sikt 10 km eller mer
ingen skyer under 1500 m og ingen bygeskyer

METAR: EFTU 261720Z AUTO 28008KT CAVOK 21/08 Q1027

Tid: 20:28 (17:28 UTC)

Varsel

Denne rapporten ble laget for 3 timer og 1 minutter siden, klokken 14:27 UTC
Varsel gyldig fra 26. klokken 15 UTC til 27. klokken 15 UTC
Vind 9 kt fra Vest-sørvest
Sikt 10 km eller mer
ingen skyer under 1500 m og ingen bygeskyer
Blir
fra 27. klokken 04 UTC til 27. klokken 06 UTC
Vind 10 kt fra Nordøst

TAF: EFTU 261427Z 2615/2715 24009KT CAVOK BECMG 2704/2706 04010KT

Værobservasjoner og værvarsel for over 4000 flyplasser (METAR- og TAF-rapporter).

Tilgjengelige stasjoner er representert av de røde og gule prikkene på kartet.

Hold musepekeren over prikken for å se navnet på stasjonen.

Klikk så for å se værobservasjoner og -varsler.

For å forandre kartet kan du klikke på den grønne knappen med svart kryss for å zoome inn, på den grønne knappen med strek for å zoome ut, eller på de grønne pilene for å se tilstøtende kart.


METAR-TAF: